LEBL/BCN METAR and TAF weather

Enter ICAO airport designator
Station Type Date Time Source
LEBL METAR 2020/04/03 23:00 UTC NOAA

LEBL 032300Z 31004KT CAVOK 10/06 Q1019 NOSIG


Station Type Date Time Source
LEBL Decoded METAR 2020/04/03 23:00 UTC NOAA

Barcelona / Aeropuerto, Spain (LEBL) 41-17N 002-04E 6M
Apr 03, 2020 - 07:00 PM EDT / 2020.04.03 2300 UTC
Wind: from the NW (310 degrees) at 5 MPH (4 KT):0
Visibility: greater than 7 mile(s):0
Temperature: 50 F (10 C)
Dew Point: 42 F (6 C)
Relative Humidity: 76%
Pressure (altimeter): 30.09 in. Hg (1019 hPa)
ob: LEBL 032300Z 31004KT CAVOK 10/06 Q1019 NOSIG
cycle: 23

Station Type Date Time Source
LEBL TAF 2020/04/03 18:27 UTC NOAA

TAF LEBL 031700Z 0318/0418 22011KT 9999 FEW030 TX17/0412Z TN09/0406Z
BECMG 0320/0322 34005KT
BECMG 0409/0411 21010KT

Example: see airport list